createdAt,value
2019-03-16T00:01:26.228Z,100085.72
2019-03-16T00:03:54.541Z,100092.28
2019-03-16T00:06:22.824Z,100088.67
2019-03-16T00:08:51.157Z,100081.76
2019-03-16T00:11:19.694Z,100077.13
2019-03-16T00:13:48.028Z,100082.39
2019-03-16T00:16:16.335Z,100080.75
2019-03-16T00:18:44.620Z,100084.03
2019-03-16T00:21:13.260Z,100077.66
2019-03-16T00:23:41.570Z,100082.77
2019-03-16T00:26:09.869Z,100086.83
2019-03-16T00:28:38.491Z,100084.03
2019-03-16T00:31:06.802Z,100092.21
2019-03-16T00:33:35.086Z,100099.30
2019-03-16T00:36:03.402Z,100111.77
2019-03-16T00:38:31.704Z,100103.59
2019-03-16T00:41:00.039Z,100105.91
2019-03-16T00:43:28.318Z,100098.68
2019-03-16T00:45:56.619Z,100099.19
2019-03-16T00:48:24.929Z,100098.39
2019-03-16T00:50:53.227Z,100115.00
2019-03-16T00:53:21.811Z,100114.02
2019-03-16T00:55:50.133Z,100111.52
2019-03-16T00:58:18.426Z,100106.11
2019-03-16T01:00:46.725Z,100108.38
2019-03-16T01:03:15.044Z,100099.36
2019-03-16T01:05:43.354Z,100111.48
2019-03-16T01:08:11.942Z,100114.80
2019-03-16T01:10:40.250Z,100106.11
2019-03-16T01:13:08.962Z,100104.75
2019-03-16T01:15:38.341Z,100105.73
2019-03-16T01:18:06.704Z,100098.98
2019-03-16T01:20:35.011Z,100096.72
2019-03-16T01:23:03.308Z,100113.30
2019-03-16T01:25:31.670Z,100122.81
2019-03-16T01:28:00.322Z,100110.36
2019-03-16T01:30:28.662Z,100106.61
2019-03-16T01:32:56.931Z,100106.77
2019-03-16T01:35:25.233Z,100112.53
2019-03-16T01:37:53.529Z,100115.34
2019-03-16T01:40:22.202Z,100118.78
2019-03-16T01:42:50.486Z,100119.61
2019-03-16T01:45:18.793Z,100116.84
2019-03-16T01:47:47.150Z,100119.16
2019-03-16T01:50:15.459Z,100118.48
2019-03-16T01:52:44.092Z,100108.96
2019-03-16T01:55:12.416Z,100116.34
2019-03-16T01:57:40.790Z,100114.54
2019-03-16T02:00:12.587Z,100113.91
2019-03-16T02:02:53.798Z,100105.72
2019-03-16T02:05:10.973Z,100110.97
2019-03-16T02:07:39.289Z,100119.81
2019-03-16T02:10:09.203Z,100125.23
2019-03-16T02:12:37.873Z,100127.55
2019-03-16T02:15:07.893Z,100117.23
2019-03-16T02:17:36.216Z,100118.87
2019-03-16T02:20:06.340Z,100118.87
2019-03-16T02:22:34.647Z,100115.56
2019-03-16T02:25:02.930Z,100105.53
2019-03-16T02:27:31.255Z,100104.52
2019-03-16T02:29:59.538Z,100098.64
2019-03-16T02:32:27.858Z,100109.47
2019-03-16T02:34:56.536Z,100103.58
2019-03-16T02:37:24.846Z,100101.77
2019-03-16T02:39:53.187Z,100107.98
2019-03-16T02:42:21.471Z,100107.03
2019-03-16T02:44:49.807Z,100117.35
2019-03-16T02:47:18.115Z,100111.30
2019-03-16T02:49:46.742Z,100119.16
2019-03-16T02:52:15.042Z,100109.59
2019-03-16T02:54:43.380Z,100119.30
2019-03-16T02:57:11.971Z,100131.98
2019-03-16T02:59:40.288Z,100140.21
2019-03-16T03:02:08.586Z,100125.23
2019-03-16T03:04:37.221Z,100123.75
2019-03-16T03:07:05.812Z,100121.97
2019-03-16T03:09:34.079Z,100102.08
2019-03-16T03:12:02.645Z,100111.11
2019-03-16T03:14:30.938Z,100116.38
2019-03-16T03:16:59.511Z,100116.56
2019-03-16T03:19:27.834Z,100120.16
2019-03-16T03:21:56.139Z,100123.92
2019-03-16T03:24:24.431Z,100126.56
2019-03-16T03:26:52.734Z,100127.88
2019-03-16T03:29:21.109Z,100128.55
2019-03-16T03:31:49.432Z,100122.63
2019-03-16T03:34:17.744Z,100127.88
2019-03-16T03:36:46.036Z,100136.89
2019-03-16T03:39:14.353Z,100141.19
2019-03-16T03:41:42.710Z,100137.07
2019-03-16T03:44:11.383Z,100134.61
2019-03-16T03:46:39.659Z,100138.87
2019-03-16T03:49:07.981Z,100131.48
2019-03-16T03:51:36.265Z,100128.98
2019-03-16T03:54:04.997Z,100135.41
2019-03-16T03:56:33.389Z,100129.48
2019-03-16T03:59:01.703Z,100133.59
2019-03-16T04:01:30.015Z,100142.62
2019-03-16T04:04:14.254Z,100136.73
2019-03-16T04:06:28.547Z,100140.50
2019-03-16T04:08:56.844Z,100141.02
2019-03-16T04:11:25.165Z,100143.64
2019-03-16T04:13:53.471Z,100139.05
2019-03-16T04:16:21.786Z,100131.80
2019-03-16T04:18:51.790Z,100134.55
2019-03-16T04:21:20.851Z,100144.73
2019-03-16T04:23:49.214Z,100136.97
2019-03-16T04:26:17.523Z,100127.73
2019-03-16T04:28:45.909Z,100129.68
2019-03-16T04:31:14.213Z,100125.55
2019-03-16T04:33:42.698Z,100134.74
2019-03-16T04:36:11.319Z,100134.59
2019-03-16T04:38:39.694Z,100126.70
2019-03-16T04:41:08.007Z,100126.52
2019-03-16T04:43:36.326Z,100135.33
2019-03-16T04:46:04.925Z,100135.82
2019-03-16T04:48:33.224Z,100133.50
2019-03-16T04:51:01.530Z,100127.59
2019-03-16T04:53:29.816Z,100134.66
2019-03-16T04:55:58.131Z,100128.91
2019-03-16T04:58:26.417Z,100124.29
2019-03-16T05:00:54.745Z,100122.97
2019-03-16T05:03:23.395Z,100127.58
2019-03-16T05:05:51.695Z,100131.52
2019-03-16T05:08:20.281Z,100120.62
2019-03-16T05:10:48.668Z,100123.25
2019-03-16T05:13:17.293Z,100118.33
2019-03-16T05:15:45.597Z,100121.61
2019-03-16T05:18:13.904Z,100123.06
2019-03-16T05:20:42.246Z,100122.05
2019-03-16T05:23:10.531Z,100118.11
2019-03-16T05:25:38.819Z,100112.21
2019-03-16T05:28:07.465Z,100114.48
2019-03-16T05:30:35.876Z,100111.85
2019-03-16T05:33:04.208Z,100109.72
2019-03-16T05:35:32.499Z,100104.47
2019-03-16T05:38:00.803Z,100103.65
2019-03-16T05:40:29.087Z,100102.34
2019-03-16T05:42:57.733Z,100107.09
2019-03-16T05:45:26.029Z,100101.03
2019-03-16T05:47:54.368Z,100097.58
2019-03-16T05:50:22.651Z,100097.58
2019-03-16T05:52:50.966Z,100105.30
2019-03-16T05:55:19.254Z,100093.16
2019-03-16T05:57:47.672Z,100088.40
2019-03-16T06:00:16.598Z,100088.89
2019-03-16T06:02:44.922Z,100092.33
2019-03-16T06:05:13.567Z,100088.08
2019-03-16T06:07:41.890Z,100087.72
2019-03-16T06:10:11.319Z,100083.45
2019-03-16T06:12:39.633Z,100083.31
2019-03-16T06:15:09.777Z,100084.46
2019-03-16T06:17:38.170Z,100083.47
2019-03-16T06:20:11.181Z,100088.20
2019-03-16T06:22:39.495Z,100090.34
2019-03-16T06:25:08.815Z,100095.59
2019-03-16T06:27:37.118Z,100091.49
2019-03-16T06:30:08.500Z,100091.98
2019-03-16T06:32:36.806Z,100085.56
2019-03-16T06:35:05.957Z,100081.13
2019-03-16T06:37:34.264Z,100081.32
2019-03-16T06:40:02.583Z,100076.09
2019-03-16T06:42:30.897Z,100082.35
2019-03-16T06:44:59.495Z,100075.98
2019-03-16T06:47:27.779Z,100071.88
2019-03-16T06:49:56.449Z,100078.95
2019-03-16T06:52:24.740Z,100085.08
2019-03-16T06:54:53.066Z,100087.86
2019-03-16T06:57:21.358Z,100075.53
2019-03-16T06:59:49.683Z,100076.70
2019-03-16T07:02:18.259Z,100072.44
2019-03-16T07:04:46.582Z,100077.36
2019-03-16T07:07:14.871Z,100072.59
2019-03-16T07:09:43.203Z,100070.33
2019-03-16T07:12:11.511Z,100064.73
2019-03-16T07:14:39.810Z,100059.47
2019-03-16T07:17:08.130Z,100042.59
2019-03-16T07:19:36.426Z,100039.49
2019-03-16T07:22:04.761Z,100037.41
2019-03-16T07:24:33.059Z,100032.99
2019-03-16T07:27:01.361Z,100031.86
2019-03-16T07:29:29.644Z,100032.69
2019-03-16T07:31:57.955Z,100036.13
2019-03-16T07:34:26.239Z,100031.06
2019-03-16T07:36:54.566Z,100024.63
2019-03-16T07:39:22.902Z,100024.14
2019-03-16T07:41:52.247Z,100027.75
2019-03-16T07:44:20.539Z,100021.17
2019-03-16T07:46:49.270Z,100019.03
2019-03-16T07:49:17.862Z,100018.98
2019-03-16T07:51:46.152Z,100011.92
2019-03-16T07:54:14.450Z,100004.23
2019-03-16T07:56:42.742Z,100004.60
2019-03-16T07:59:11.054Z,100007.38
2019-03-16T08:01:39.354Z,100006.61
2019-03-16T08:04:07.665Z,100006.76
2019-03-16T08:06:36.216Z,100006.80
2019-03-16T08:09:05.892Z,100006.45
2019-03-16T08:11:34.323Z,100005.00
2019-03-16T08:14:02.799Z,100010.75
2019-03-16T08:16:31.114Z,100003.20
2019-03-16T08:18:59.486Z,100002.05
2019-03-16T08:21:27.813Z,99993.00
2019-03-16T08:23:56.315Z,100000.25
2019-03-16T08:26:24.619Z,99985.31
2019-03-16T08:28:52.985Z,99978.11
2019-03-16T08:31:21.281Z,99976.48
2019-03-16T08:33:49.805Z,99974.69
2019-03-16T08:36:18.680Z,99975.19
2019-03-16T08:38:47.260Z,99970.61
2019-03-16T08:41:15.548Z,99971.78
2019-03-16T08:43:44.235Z,99964.92
2019-03-16T08:46:12.509Z,99961.47
2019-03-16T08:48:40.846Z,99965.90
2019-03-16T08:51:09.153Z,99952.45
2019-03-16T08:53:37.461Z,99960.97
2019-03-16T08:56:05.797Z,99963.28
2019-03-16T08:58:34.401Z,99964.44
2019-03-16T09:01:02.699Z,99960.31
2019-03-16T09:03:42.681Z,99955.40
2019-03-16T09:06:01.061Z,99946.68
2019-03-16T09:08:29.610Z,99952.58
2019-03-16T09:10:57.906Z,99960.01
2019-03-16T09:13:26.191Z,99957.52
2019-03-16T09:15:54.517Z,99961.79
2019-03-16T09:18:22.814Z,99964.77
2019-03-16T09:20:51.143Z,99945.67
2019-03-16T09:23:19.447Z,99965.91
2019-03-16T09:25:47.753Z,99964.93
2019-03-16T09:28:18.950Z,99967.07
2019-03-16T09:30:46.089Z,99971.84
2019-03-16T09:33:14.432Z,99961.31
2019-03-16T09:35:42.700Z,99969.02
2019-03-16T09:38:11.054Z,99968.55
2019-03-16T09:40:39.700Z,99968.55
2019-03-16T09:43:07.992Z,99961.80
2019-03-16T09:45:36.321Z,99953.58
2019-03-16T09:48:04.611Z,99959.98
2019-03-16T09:50:33.221Z,99964.91
2019-03-16T09:53:01.522Z,99953.08
2019-03-16T09:55:30.193Z,99965.42
2019-03-16T09:57:58.909Z,99962.93
2019-03-16T10:00:27.215Z,99952.23
2019-03-16T10:02:55.528Z,99947.95
2019-03-16T10:05:23.959Z,99943.00
2019-03-16T10:07:52.254Z,99946.25
2019-03-16T10:10:20.873Z,99938.81
2019-03-16T10:12:49.176Z,99928.91
2019-03-16T10:15:17.473Z,99933.34
2019-03-16T10:17:45.850Z,99931.86
2019-03-16T10:20:17.174Z,99926.43
2019-03-16T10:22:45.456Z,99931.08
2019-03-16T10:25:13.860Z,99913.66
2019-03-16T10:27:42.124Z,99927.63
2019-03-16T10:30:12.282Z,99917.89
2019-03-16T10:32:40.635Z,99905.02
2019-03-16T10:35:09.002Z,99897.59
2019-03-16T10:37:37.299Z,99918.80
2019-03-16T10:40:10.746Z,99911.58
2019-03-16T10:42:39.039Z,99914.53
2019-03-16T10:45:09.077Z,99910.71
2019-03-16T10:47:37.369Z,99901.48
2019-03-16T10:50:08.906Z,99907.89
2019-03-16T10:52:37.193Z,99917.59
2019-03-16T10:55:07.011Z,99901.12
2019-03-16T10:57:35.331Z,99911.66
2019-03-16T11:00:05.633Z,99896.72
2019-03-16T11:02:33.952Z,99893.41
2019-03-16T11:05:02.240Z,99882.14
2019-03-16T11:07:30.548Z,99888.91
2019-03-16T11:09:58.842Z,99880.63
2019-03-16T11:12:27.162Z,99884.55
2019-03-16T11:14:55.457Z,99864.55
2019-03-16T11:17:24.289Z,99881.72
2019-03-16T11:19:52.566Z,99884.86
2019-03-16T11:22:20.903Z,99889.28
2019-03-16T11:24:49.204Z,99897.81
2019-03-16T11:27:17.533Z,99896.41
2019-03-16T11:29:45.809Z,99889.79
2019-03-16T11:32:14.091Z,99886.14
2019-03-16T11:34:42.495Z,99873.31
2019-03-16T11:37:10.776Z,99886.11
2019-03-16T11:39:39.096Z,99879.48
2019-03-16T11:42:07.376Z,99875.72
2019-03-16T11:44:36.055Z,99879.70
2019-03-16T11:47:04.347Z,99875.72
2019-03-16T11:49:32.666Z,99874.67
2019-03-16T11:52:00.966Z,99878.89
2019-03-16T11:54:29.267Z,99868.00
2019-03-16T11:56:57.828Z,99859.77
2019-03-16T11:59:26.108Z,99861.41
2019-03-16T12:02:04.859Z,99858.96
2019-03-16T12:04:24.719Z,99862.91
2019-03-16T12:06:53.109Z,99862.26
2019-03-16T12:09:21.671Z,99859.23
2019-03-16T12:11:50.048Z,99849.60
2019-03-16T12:14:18.372Z,99841.54
2019-03-16T12:16:46.678Z,99862.06
2019-03-16T12:19:14.960Z,99854.27
2019-03-16T12:21:43.259Z,99852.59
2019-03-16T12:24:11.865Z,99856.23
2019-03-16T12:26:40.163Z,99853.56
2019-03-16T12:29:08.445Z,99847.53
2019-03-16T12:31:37.075Z,99858.01
2019-03-16T12:34:05.385Z,99843.38
2019-03-16T12:36:36.092Z,99856.74
2019-03-16T12:39:06.600Z,99840.59
2019-03-16T12:41:34.882Z,99833.20
2019-03-16T12:44:03.481Z,99838.22
2019-03-16T12:46:32.468Z,99838.75
2019-03-16T12:49:00.891Z,99836.88
2019-03-16T12:51:29.189Z,99836.11
2019-03-16T12:53:57.558Z,99817.28
2019-03-16T12:56:25.872Z,99827.42
2019-03-16T12:58:54.574Z,99826.45
2019-03-16T13:01:23.417Z,99820.02
2019-03-16T13:03:52.039Z,99828.25
2019-03-16T13:06:20.621Z,99834.53
2019-03-16T13:08:48.914Z,99829.72
2019-03-16T13:11:17.232Z,99831.53
2019-03-16T13:13:45.557Z,99826.33
2019-03-16T13:16:13.860Z,99834.78
2019-03-16T13:18:42.413Z,99824.23
2019-03-16T13:21:10.732Z,99826.22
2019-03-16T13:23:39.281Z,99839.09
2019-03-16T13:26:07.577Z,99826.06
2019-03-16T13:28:35.929Z,99819.41
2019-03-16T13:31:04.512Z,99811.19
2019-03-16T13:33:32.885Z,99815.30
2019-03-16T13:36:01.224Z,99794.81
2019-03-16T13:38:29.572Z,99811.76
2019-03-16T13:40:58.150Z,99810.13
2019-03-16T13:43:26.698Z,99795.94
2019-03-16T13:45:55.000Z,99808.20
2019-03-16T13:48:23.548Z,99808.28
2019-03-16T13:50:51.872Z,99819.65
2019-03-16T13:53:20.172Z,99810.97
2019-03-16T13:55:49.119Z,99811.67
2019-03-16T13:58:17.418Z,99804.27
2019-03-16T14:00:45.824Z,99807.60
2019-03-16T14:03:14.349Z,99802.33
2019-03-16T14:05:42.871Z,99780.05
2019-03-16T14:08:11.199Z,99786.94
2019-03-16T14:10:39.783Z,99788.22
2019-03-16T14:13:08.084Z,99791.45
2019-03-16T14:15:36.375Z,99773.31
2019-03-16T14:18:04.699Z,99788.98
2019-03-16T14:20:33.417Z,99788.52
2019-03-16T14:23:01.980Z,99782.67
2019-03-16T14:25:30.581Z,99786.58
2019-03-16T14:27:59.163Z,99773.56
2019-03-16T14:30:40.484Z,99774.02
2019-03-16T14:32:57.588Z,99782.08
2019-03-16T14:35:25.899Z,99781.52
2019-03-16T14:37:54.185Z,99760.28
2019-03-16T14:40:23.151Z,99760.16
2019-03-16T14:42:51.415Z,99755.56
2019-03-16T14:45:20.000Z,99760.65
2019-03-16T14:47:48.386Z,99755.23
2019-03-16T14:50:21.461Z,99743.30
2019-03-16T14:52:50.242Z,99754.55
2019-03-16T14:55:18.533Z,99753.04
2019-03-16T14:57:46.842Z,99757.22
2019-03-16T15:00:16.064Z,99742.87
2019-03-16T15:02:46.060Z,99740.48
2019-03-16T15:05:14.893Z,99741.58
2019-03-16T15:07:43.201Z,99725.52
2019-03-16T15:10:12.919Z,99719.91
2019-03-16T15:12:41.566Z,99718.70
2019-03-16T15:15:12.680Z,99729.98
2019-03-16T15:17:40.972Z,99729.03
2019-03-16T15:20:11.520Z,99689.81
2019-03-16T15:22:39.856Z,99715.58
2019-03-16T15:25:11.242Z,99711.67
2019-03-16T15:27:39.774Z,99717.67
2019-03-16T15:30:17.336Z,99715.83
2019-03-16T15:32:45.646Z,99707.35
2019-03-16T15:35:14.096Z,99704.41
2019-03-16T15:37:42.369Z,99712.63
2019-03-16T15:40:12.017Z,99707.80
2019-03-16T15:42:40.308Z,99706.40
2019-03-16T15:45:11.802Z,99709.76
2019-03-16T15:47:40.167Z,99710.52
2019-03-16T15:50:09.319Z,99693.03
2019-03-16T15:52:37.914Z,99696.67
2019-03-16T15:55:07.509Z,99697.03
2019-03-16T15:57:35.828Z,99686.39
2019-03-16T16:00:07.685Z,99688.02
2019-03-16T16:02:35.977Z,99696.17
2019-03-16T16:05:05.811Z,99684.08
2019-03-16T16:07:35.424Z,99674.13
2019-03-16T16:10:07.130Z,99676.06
2019-03-16T16:12:35.446Z,99663.16
2019-03-16T16:15:06.415Z,99678.98
2019-03-16T16:17:34.723Z,99675.55
2019-03-16T16:20:03.786Z,99665.56
2019-03-16T16:22:32.081Z,99664.30
2019-03-16T16:25:00.509Z,99657.52
2019-03-16T16:27:29.176Z,99658.72
2019-03-16T16:29:57.479Z,99672.02
2019-03-16T16:32:25.803Z,99658.33
2019-03-16T16:34:54.510Z,99662.11
2019-03-16T16:37:22.812Z,99654.56
2019-03-16T16:39:51.384Z,99651.20
2019-03-16T16:42:19.954Z,99644.74
2019-03-16T16:44:48.268Z,99647.69
2019-03-16T16:47:16.571Z,99642.41
2019-03-16T16:49:44.867Z,99655.32
2019-03-16T16:52:13.164Z,99644.09
2019-03-16T16:54:41.856Z,99654.81
2019-03-16T16:57:10.158Z,99649.94
2019-03-16T16:59:38.455Z,99655.38
2019-03-16T17:02:07.021Z,99654.56
2019-03-16T17:04:35.339Z,99652.48
2019-03-16T17:07:03.863Z,99654.98
2019-03-16T17:09:32.429Z,99639.47
2019-03-16T17:12:00.727Z,99648.11
2019-03-16T17:14:30.095Z,99643.64
2019-03-16T17:16:58.742Z,99636.30
2019-03-16T17:19:27.077Z,99640.61
2019-03-16T17:21:55.654Z,99636.49
2019-03-16T17:24:23.979Z,99624.43
2019-03-16T17:26:52.717Z,99630.43
2019-03-16T17:29:21.132Z,99633.06
2019-03-16T17:31:49.485Z,99626.67
2019-03-16T17:34:18.093Z,99625.86
2019-03-16T17:36:46.632Z,99623.44
2019-03-16T17:39:14.936Z,99624.25
2019-03-16T17:41:43.243Z,99618.73
2019-03-16T17:44:11.980Z,99619.25
2019-03-16T17:46:40.307Z,99616.76
2019-03-16T17:49:08.937Z,99619.23
2019-03-16T17:51:37.536Z,99616.09
2019-03-16T17:54:05.874Z,99614.94
2019-03-16T17:56:34.163Z,99611.23
2019-03-16T17:59:02.473Z,99606.27
2019-03-16T18:01:30.771Z,99613.67
2019-03-16T18:03:59.080Z,99616.70
2019-03-16T18:06:27.424Z,99616.34
2019-03-16T18:08:55.720Z,99616.09
2019-03-16T18:11:24.361Z,99623.35
2019-03-16T18:13:52.677Z,99617.98
2019-03-16T18:16:20.978Z,99599.84
2019-03-16T18:18:49.312Z,99605.26
2019-03-16T18:21:17.622Z,99602.93
2019-03-16T18:23:45.905Z,99612.05
2019-03-16T18:26:14.235Z,99616.00
2019-03-16T18:28:42.806Z,99609.50
2019-03-16T18:31:11.502Z,99617.94
2019-03-16T18:33:39.772Z,99610.03
2019-03-16T18:36:11.332Z,99623.55
2019-03-16T18:38:38.491Z,99608.70
2019-03-16T18:41:06.843Z,99607.39
2019-03-16T18:43:35.248Z,99608.34
2019-03-16T18:46:03.562Z,99606.89
2019-03-16T18:48:31.854Z,99606.52
2019-03-16T18:51:00.449Z,99609.86
2019-03-16T18:53:29.076Z,99596.69
2019-03-16T18:55:57.440Z,99612.64
2019-03-16T18:58:36.541Z,99598.98
2019-03-16T19:00:56.029Z,99600.80
2019-03-16T19:03:24.365Z,99602.12
2019-03-16T19:05:52.699Z,99596.53
2019-03-16T19:08:21.010Z,99593.55
2019-03-16T19:10:49.315Z,99588.27
2019-03-16T19:13:17.628Z,99582.49
2019-03-16T19:15:46.163Z,99575.09
2019-03-16T19:18:14.739Z,99575.23
2019-03-16T19:20:43.038Z,99575.09
2019-03-16T19:23:11.458Z,99560.76
2019-03-16T19:25:39.857Z,99570.62
2019-03-16T19:28:08.408Z,99546.73
2019-03-16T19:30:36.726Z,99560.59
2019-03-16T19:33:05.293Z,99561.71
2019-03-16T19:35:33.682Z,99550.36
2019-03-16T19:38:02.047Z,99557.90
2019-03-16T19:40:30.375Z,99550.70
2019-03-16T19:42:58.718Z,99547.72
2019-03-16T19:45:27.032Z,99543.41
2019-03-16T19:47:55.357Z,99543.91
2019-03-16T19:50:23.681Z,99533.30
2019-03-16T19:52:52.703Z,99539.75
2019-03-16T19:55:21.033Z,99523.24
2019-03-16T19:57:49.332Z,99523.24
2019-03-16T20:00:18.263Z,99530.16
2019-03-16T20:02:50.965Z,99533.16
2019-03-16T20:05:17.062Z,99522.45
2019-03-16T20:07:45.492Z,99528.23
2019-03-16T20:10:19.005Z,99509.94
2019-03-16T20:12:47.926Z,99519.31
2019-03-16T20:15:17.112Z,99525.23
2019-03-16T20:17:45.692Z,99509.72
2019-03-16T20:20:15.251Z,99510.73
2019-03-16T20:22:44.797Z,99513.02
2019-03-16T20:25:13.786Z,99504.81
2019-03-16T20:27:42.402Z,99492.30
2019-03-16T20:30:14.681Z,99490.67
2019-03-16T20:32:43.042Z,99497.47
2019-03-16T20:35:11.876Z,99488.24
2019-03-16T20:37:40.245Z,99488.55
2019-03-16T20:40:13.296Z,99482.77
2019-03-16T20:42:41.826Z,99476.69
2019-03-16T20:45:10.940Z,99472.87
2019-03-16T20:47:39.876Z,99466.28
2019-03-16T20:50:14.580Z,99468.41
2019-03-16T20:52:43.260Z,99471.55
2019-03-16T20:55:11.754Z,99471.28
2019-03-16T20:57:40.329Z,99475.23
2019-03-16T21:00:13.716Z,99473.91
2019-03-16T21:02:42.076Z,99460.36
2019-03-16T21:05:10.964Z,99468.33
2019-03-16T21:07:39.309Z,99467.83
2019-03-16T21:10:12.489Z,99449.07
2019-03-16T21:12:40.952Z,99451.87
2019-03-16T21:15:17.742Z,99438.39
2019-03-16T21:17:46.019Z,99436.56
2019-03-16T21:20:19.586Z,99449.75
2019-03-16T21:22:47.873Z,99427.34
2019-03-16T21:25:16.868Z,99414.98
2019-03-16T21:27:45.193Z,99434.74
2019-03-16T21:30:19.680Z,99430.92
2019-03-16T21:32:48.172Z,99406.83
2019-03-16T21:35:16.471Z,99406.83
2019-03-16T21:37:45.098Z,99415.25
2019-03-16T21:40:14.422Z,99406.19
2019-03-16T21:42:42.734Z,99402.30
2019-03-16T21:45:12.937Z,99403.55
2019-03-16T21:47:59.909Z,99398.11
2019-03-16T21:50:23.728Z,99391.89
2019-03-16T21:52:52.043Z,99401.63
2019-03-16T21:55:20.648Z,99380.34
2019-03-16T21:57:48.952Z,99382.84
2019-03-16T22:00:18.285Z,99387.80
2019-03-16T22:02:46.598Z,99373.45
2019-03-16T22:05:27.317Z,99362.91
2019-03-16T22:07:55.957Z,99375.13
2019-03-16T22:10:24.281Z,99366.22
2019-03-16T22:12:52.584Z,99361.45
2019-03-16T22:15:20.871Z,99366.41
2019-03-16T22:17:49.179Z,99372.63
2019-03-16T22:20:18.753Z,99357.20
2019-03-16T22:22:47.371Z,99354.59
2019-03-16T22:25:15.738Z,99345.20
2019-03-16T22:27:44.022Z,99352.43
2019-03-16T22:30:14.775Z,99349.29
2019-03-16T22:32:43.373Z,99348.27
2019-03-16T22:35:11.971Z,99345.13
2019-03-16T22:37:40.332Z,99338.17
2019-03-16T22:40:13.571Z,99330.13
2019-03-16T22:42:41.960Z,99331.45
2019-03-16T22:45:11.709Z,99336.41
2019-03-16T22:47:39.997Z,99330.64
2019-03-16T22:50:11.887Z,99325.67
2019-03-16T22:52:40.168Z,99323.92
2019-03-16T22:55:08.991Z,99322.43
2019-03-16T22:57:37.298Z,99322.43
2019-03-16T23:00:19.158Z,99324.35
2019-03-16T23:02:47.614Z,99308.06
2019-03-16T23:05:15.893Z,99287.80
2019-03-16T23:07:44.498Z,99295.37
2019-03-16T23:10:13.390Z,99297.39
2019-03-16T23:12:41.690Z,99275.38
2019-03-16T23:15:12.937Z,99283.34
2019-03-16T23:17:41.480Z,99274.30
2019-03-16T23:20:10.680Z,99275.01
2019-03-16T23:22:39.270Z,99271.56
2019-03-16T23:25:09.017Z,99271.94
2019-03-16T23:27:37.859Z,99269.48
2019-03-16T23:30:08.243Z,99275.25
2019-03-16T23:32:36.571Z,99268.87
2019-03-16T23:35:06.207Z,99253.53
2019-03-16T23:37:34.517Z,99245.84
2019-03-16T23:40:03.452Z,99254.68
2019-03-16T23:42:31.726Z,99248.27
2019-03-16T23:45:00.047Z,99236.75
2019-03-16T23:47:28.355Z,99247.97
2019-03-16T23:49:56.688Z,99238.23
2019-03-16T23:52:25.462Z,99226.20
2019-03-16T23:54:53.757Z,99227.15
2019-03-16T23:57:22.035Z,99217.34
2019-03-16T23:59:50.685Z,99218.23
